Skip Navigation Links Skip Navigation Links

Current Weather

Rio Grande BA, Rio Grande, Argentina

For information only: do not use for flight planning or navigation.
Latest weather
Observation time Saturday, October 19, 2019 5:00 AM ART
Local time Saturday, October 19, 2019 7:21 AM ART
Flight conditions Visual Meteorological Conditions
Winds
Wind direction Northwest (320°)
Wind speed 24 mph
Visibility 6.2 mi.
Sky condition
Ceiling unlimited
Sky clear
Temperature 46°F
Dewpoint 41°F
Altimeter 29.47 in.Hg
Derived measurements
Relative humidity 81%
Wind chill 38°F
Density altitude -120 ft.
Remarks
Ceiling and visibility OK.
METAR SAWE 190800Z 32021KT CAVOK 08/05 Q0998

Settings

Location code

InnerDrive.Weather 4.0.6770.0 Release CLR 4.0.30319.42000
Copyright ©2018 Inner Drive Technology. All rights reserved. Portions Copyright ©1986-2018 David Braverman.

Find weather

Site navigation


Skip Navigation Links

Place info

Page info

PayPal - The safer, easier way to pay online!

Return home.

Copyright ©2019 Inner Drive Technology. Purveyors of fine, hand-crafted computer software. Page printed 2019-10-19T10:21:45 UTC.